createdAt,value
2019-04-24T00:05:29.019Z,16.70
2019-04-24T00:07:35.054Z,16.50
2019-04-24T00:10:12.906Z,16.50
2019-04-24T00:12:36.473Z,16.40
2019-04-24T00:15:27.346Z,16.40
2019-04-24T00:17:21.959Z,16.30
2019-04-24T00:20:09.795Z,16.70
2019-04-24T00:25:06.922Z,16.40
2019-04-24T00:27:18.534Z,16.40
2019-04-24T00:29:49.548Z,16.50
2019-04-24T00:32:16.664Z,16.40
2019-04-24T00:35:15.227Z,16.30
2019-04-24T00:39:41.608Z,16.40
2019-04-24T00:42:17.181Z,16.40
2019-04-24T00:44:32.664Z,16.30
2019-04-24T00:47:07.201Z,16.20
2019-04-24T00:49:32.286Z,16.20
2019-04-24T00:51:56.351Z,16.10
2019-04-24T00:54:27.043Z,16.10
2019-04-24T00:57:00.542Z,16.20
2019-04-24T01:05:02.579Z,16.20
2019-04-24T01:09:41.020Z,16.30
2019-04-24T01:12:10.614Z,16.30
2019-04-24T01:14:27.830Z,16.30
2019-04-24T01:17:14.539Z,16.40
2019-04-24T01:19:37.162Z,16.40
2019-04-24T01:22:11.279Z,16.40
2019-04-24T01:24:49.253Z,16.10
2019-04-24T01:29:26.457Z,16.10
2019-04-24T01:32:09.111Z,16.40
2019-04-24T01:37:17.659Z,16.20
2019-04-24T01:39:43.813Z,16.00
2019-04-24T01:42:16.351Z,16.00
2019-04-24T01:44:34.229Z,16.00
2019-04-24T01:47:06.457Z,15.90
2019-04-24T01:49:42.172Z,16.00
2019-04-24T01:54:32.121Z,15.90
2019-04-24T01:56:57.199Z,15.90
2019-04-24T02:04:26.862Z,15.80
2019-04-24T02:06:39.972Z,15.80
2019-04-24T02:09:37.047Z,15.70
2019-04-24T02:14:19.232Z,15.70
2019-04-24T02:16:35.577Z,15.70
2019-04-24T02:19:08.176Z,15.60
2019-04-24T02:21:42.021Z,15.60
2019-04-24T02:24:08.611Z,15.80
2019-04-24T02:26:28.904Z,15.70
2019-04-24T02:29:07.523Z,15.60
2019-04-24T02:36:37.653Z,15.50
2019-04-24T02:41:44.530Z,15.60
2019-04-24T02:44:30.256Z,15.50
2019-04-24T02:46:41.729Z,15.40
2019-04-24T02:49:23.282Z,15.40
2019-04-24T02:54:09.465Z,15.40
2019-04-24T02:56:35.561Z,15.40
2019-04-24T03:01:21.958Z,15.30
2019-04-24T03:06:40.614Z,15.30
2019-04-24T03:19:11.663Z,15.20
2019-04-24T03:21:42.292Z,15.20
2019-04-24T03:27:00.029Z,15.20
2019-04-24T03:29:19.451Z,15.20
2019-04-24T03:34:23.015Z,15.10
2019-04-24T03:48:56.897Z,15.10
2019-04-24T04:30:06.319Z,14.80
2019-04-24T04:35:05.269Z,14.80
2019-04-24T04:37:31.851Z,14.80
2019-04-24T05:00:54.965Z,14.50
2019-04-24T05:08:15.453Z,14.50
2019-04-24T05:10:47.691Z,14.50
2019-04-24T05:13:07.909Z,14.50
2019-04-24T05:15:40.443Z,14.50
2019-04-24T05:18:19.862Z,14.50
2019-04-24T05:20:33.295Z,14.60
2019-04-24T05:22:40.200Z,14.70
2019-04-24T05:28:14.969Z,14.70
2019-04-24T05:30:39.417Z,14.60
2019-04-24T05:38:45.303Z,14.70
2019-04-24T05:40:49.647Z,14.70
2019-04-24T05:48:41.937Z,14.80
2019-04-24T05:53:42.649Z,14.80
2019-04-24T05:56:08.235Z,14.80
2019-04-24T05:58:28.039Z,14.80
2019-04-24T06:03:59.174Z,15.00
2019-04-24T06:06:14.887Z,15.10
2019-04-24T06:08:32.207Z,15.10
2019-04-24T06:11:06.776Z,15.30
2019-04-24T06:13:42.251Z,15.40
2019-04-24T06:16:21.525Z,15.50
2019-04-24T06:18:55.320Z,15.50
2019-04-24T06:21:23.160Z,15.60
2019-04-24T06:26:22.443Z,15.80
2019-04-24T06:31:14.870Z,16.10
2019-04-24T06:33:52.631Z,16.00
2019-04-24T06:36:37.093Z,16.10
2019-04-24T06:39:00.944Z,16.30
2019-04-24T06:46:10.226Z,16.80
2019-04-24T06:48:35.523Z,16.80
2019-04-24T06:53:23.625Z,16.70
2019-04-24T06:56:06.596Z,16.70
2019-04-24T06:58:25.891Z,16.60
2019-04-24T07:00:58.137Z,16.50
2019-04-24T07:03:33.926Z,16.70
2019-04-24T07:08:37.191Z,16.80
2019-04-24T07:14:01.282Z,17.10
2019-04-24T07:16:45.953Z,17.30
2019-04-24T07:18:39.975Z,17.50
2019-04-24T07:21:37.859Z,17.90
2019-04-24T07:24:02.037Z,17.90
2019-04-24T07:26:19.143Z,18.00
2019-04-24T07:29:16.371Z,18.30
2019-04-24T07:31:41.558Z,18.30
2019-04-24T07:34:16.237Z,18.50
2019-04-24T07:36:27.430Z,18.50
2019-04-24T07:38:45.752Z,18.60
2019-04-24T07:41:54.588Z,18.70
2019-04-24T07:43:59.751Z,18.80
2019-04-24T07:46:16.811Z,18.80
2019-04-24T07:51:14.318Z,18.90
2019-04-24T07:56:40.286Z,18.80
2019-04-24T07:59:09.189Z,19.10
2019-04-24T08:01:23.173Z,19.00
2019-04-24T08:03:59.819Z,19.10
2019-04-24T08:06:25.834Z,19.20
2019-04-24T08:11:13.818Z,19.20
2019-04-24T08:13:53.576Z,19.70
2019-04-24T08:16:08.595Z,19.80
2019-04-24T08:18:48.693Z,19.70
2019-04-24T08:20:57.494Z,19.90
2019-04-24T08:26:00.396Z,20.10
2019-04-24T08:28:43.948Z,20.10
2019-04-24T08:31:21.040Z,20.00
2019-04-24T08:36:06.636Z,20.20
2019-04-24T08:39:04.016Z,20.30
2019-04-24T08:41:35.018Z,20.50
2019-04-24T08:44:00.342Z,20.40
2019-04-24T08:46:38.072Z,20.50
2019-04-24T08:49:11.375Z,20.50
2019-04-24T08:51:35.573Z,20.40
2019-04-24T08:54:04.012Z,20.80
2019-04-24T08:58:51.958Z,21.00
2019-04-24T09:06:35.610Z,20.90
2019-04-24T09:11:40.242Z,21.20
2019-04-24T09:14:25.300Z,21.50
2019-04-24T09:16:44.326Z,21.50
2019-04-24T09:19:08.083Z,21.50
2019-04-24T09:21:39.398Z,21.50
2019-04-24T09:24:28.742Z,21.40
2019-04-24T09:33:59.494Z,21.90
2019-04-24T09:43:56.923Z,22.20
2019-04-24T09:46:18.601Z,22.30
2019-04-24T09:48:57.474Z,22.30
2019-04-24T09:51:16.385Z,22.20
2019-04-24T09:56:28.164Z,22.40
2019-04-24T09:58:47.499Z,22.50
2019-04-24T10:01:30.929Z,22.90
2019-04-24T10:03:53.675Z,22.80
2019-04-24T10:08:39.816Z,22.90
2019-04-24T10:11:11.865Z,22.80
2019-04-24T10:13:39.922Z,22.70
2019-04-24T10:15:54.071Z,22.70
2019-04-24T10:18:45.622Z,22.70
2019-04-24T10:20:48.190Z,22.70
2019-04-24T10:23:42.534Z,22.90
2019-04-24T10:26:03.208Z,23.10
2019-04-24T10:28:42.576Z,23.40
2019-04-24T10:31:04.184Z,23.60
2019-04-24T10:36:00.383Z,23.30
2019-04-24T10:41:11.295Z,23.60
2019-04-24T10:43:35.813Z,23.70
2019-04-24T10:46:24.859Z,23.20
2019-04-24T10:48:44.443Z,23.20
2019-04-24T10:51:16.814Z,23.10
2019-04-24T10:58:48.691Z,23.60
2019-04-24T11:04:01.330Z,23.40
2019-04-24T11:06:22.073Z,23.30
2019-04-24T11:08:59.400Z,23.20
2019-04-24T11:11:19.238Z,23.20
2019-04-24T11:14:10.736Z,23.40
2019-04-24T11:16:49.012Z,23.50
2019-04-24T11:21:50.703Z,23.80
2019-04-24T11:24:11.282Z,24.10
2019-04-24T11:26:59.392Z,23.70
2019-04-24T11:29:05.356Z,23.70
2019-04-24T11:31:41.946Z,23.80
2019-04-24T11:34:35.777Z,24.00
2019-04-24T11:36:53.138Z,24.00
2019-04-24T11:39:21.207Z,24.20
2019-04-24T11:49:27.454Z,24.00
2019-04-24T11:54:48.758Z,23.80
2019-04-24T11:57:27.138Z,23.60
2019-04-24T12:02:45.809Z,23.40
2019-04-24T12:08:01.641Z,23.90
2019-04-24T12:10:20.764Z,23.90
2019-04-24T12:12:57.748Z,23.80
2019-04-24T12:15:23.323Z,24.20
2019-04-24T12:17:53.128Z,24.20
2019-04-24T12:20:16.573Z,24.30
2019-04-24T12:22:51.961Z,24.20
2019-04-24T12:25:24.972Z,24.50
2019-04-24T12:28:03.766Z,24.40
2019-04-24T12:30:28.793Z,24.40
2019-04-24T12:32:54.906Z,24.60
2019-04-24T12:35:26.768Z,24.80
2019-04-24T12:38:03.123Z,24.70
2019-04-24T12:42:59.984Z,24.80
2019-04-24T12:45:33.927Z,24.80
2019-04-24T12:47:46.282Z,24.80
2019-04-24T12:52:53.139Z,25.20
2019-04-24T13:08:50.274Z,24.90
2019-04-24T13:15:59.498Z,24.40
2019-04-24T13:18:26.667Z,24.10
2019-04-24T13:20:32.539Z,24.40
2019-04-24T13:31:03.975Z,24.40
2019-04-24T13:36:08.782Z,24.00
2019-04-24T13:40:58.363Z,24.10
2019-04-24T13:55:53.914Z,24.20
2019-04-24T14:08:41.377Z,25.20
2019-04-24T14:21:11.252Z,24.30
2019-04-24T14:23:47.061Z,24.10
2019-04-24T14:26:12.543Z,24.10
2019-04-24T14:28:37.372Z,24.00
2019-04-24T14:31:17.599Z,24.20
2019-04-24T14:38:30.996Z,24.30
2019-04-24T14:41:02.168Z,24.40
2019-04-24T14:48:24.931Z,24.60
2019-04-24T14:51:04.904Z,24.60
2019-04-24T14:53:19.096Z,24.20
2019-04-24T14:55:45.080Z,24.30
2019-04-24T14:58:10.324Z,24.30
2019-04-24T15:03:09.738Z,24.30
2019-04-24T15:05:52.382Z,24.30
2019-04-24T15:08:13.095Z,24.20
2019-04-24T15:10:56.615Z,24.20
2019-04-24T15:13:13.633Z,24.20
2019-04-24T15:20:24.280Z,23.80
2019-04-24T15:22:57.971Z,23.70
2019-04-24T15:28:07.518Z,23.70
2019-04-24T15:30:23.588Z,23.80
2019-04-24T15:32:57.281Z,23.80
2019-04-24T15:35:22.081Z,23.80
2019-04-24T15:37:54.692Z,23.90
2019-04-24T15:40:29.772Z,23.80
2019-04-24T15:42:51.357Z,23.50
2019-04-24T15:45:11.907Z,23.50
2019-04-24T15:47:59.094Z,23.30
2019-04-24T15:50:12.719Z,23.30
2019-04-24T15:52:06.088Z,23.70
2019-04-24T15:54:33.178Z,23.70
2019-04-24T15:57:00.912Z,23.60
2019-04-24T15:59:51.828Z,23.50
2019-04-24T16:02:28.616Z,22.90
2019-04-24T16:04:53.500Z,22.40
2019-04-24T16:06:56.486Z,22.00
2019-04-24T16:09:25.415Z,21.80
2019-04-24T16:11:53.660Z,22.00
2019-04-24T16:14:49.722Z,22.00
2019-04-24T16:17:09.323Z,22.70
2019-04-24T16:22:09.265Z,21.90
2019-04-24T16:24:45.495Z,22.10
2019-04-24T16:27:16.035Z,22.10
2019-04-24T16:29:28.571Z,22.10
2019-04-24T16:34:34.664Z,21.70
2019-04-24T16:37:38.278Z,22.00
2019-04-24T16:39:21.459Z,21.90
2019-04-24T16:42:19.732Z,22.10
2019-04-24T16:44:34.396Z,22.30
2019-04-24T16:56:47.936Z,22.40
2019-04-24T17:01:50.319Z,22.40
2019-04-24T17:19:22.430Z,22.10
2019-04-24T17:24:07.997Z,22.00
2019-04-24T17:26:52.708Z,22.20
2019-04-24T17:29:19.902Z,22.20
2019-04-24T17:31:27.951Z,22.20
2019-04-24T17:34:01.933Z,22.20
2019-04-24T17:38:25.432Z,21.70
2019-04-24T17:40:53.301Z,21.50
2019-04-24T17:43:57.181Z,21.90
2019-04-24T17:48:46.931Z,21.80
2019-04-24T17:53:39.445Z,21.60
2019-04-24T18:00:52.409Z,21.50
2019-04-24T18:03:19.831Z,21.50
2019-04-24T18:05:48.218Z,21.20
2019-04-24T18:08:16.639Z,21.10
2019-04-24T18:10:44.214Z,21.10
2019-04-24T18:13:12.556Z,21.10
2019-04-24T18:15:39.401Z,21.30
2019-04-24T18:18:07.751Z,21.10
2019-04-24T18:23:14.347Z,20.50
2019-04-24T18:25:56.777Z,20.40
2019-04-24T18:28:25.430Z,20.10
2019-04-24T18:30:54.607Z,20.00
2019-04-24T18:33:22.335Z,20.40
2019-04-24T18:35:51.665Z,20.20
2019-04-24T18:38:18.331Z,20.10
2019-04-24T18:40:45.788Z,19.60
2019-04-24T18:43:13.255Z,19.70
2019-04-24T18:45:42.121Z,19.30
2019-04-24T18:48:09.140Z,18.80
2019-04-24T18:50:37.217Z,18.70
2019-04-24T18:53:05.480Z,18.70
2019-04-24T18:55:32.253Z,18.80
2019-04-24T18:58:00.640Z,18.50
2019-04-24T19:00:28.302Z,18.50
2019-04-24T19:02:56.541Z,18.50
2019-04-24T19:05:24.045Z,18.50
2019-04-24T19:07:52.430Z,18.60
2019-04-24T19:10:21.412Z,18.60
2019-04-24T19:12:47.443Z,17.90
2019-04-24T19:15:15.286Z,17.70
2019-04-24T19:17:54.355Z,18.90
2019-04-24T19:20:12.658Z,18.90
2019-04-24T19:22:39.458Z,17.80
2019-04-24T19:25:08.844Z,17.90
2019-04-24T19:27:35.406Z,17.90
2019-04-24T19:30:04.773Z,18.10
2019-04-24T19:32:32.669Z,18.10
2019-04-24T19:35:00.228Z,17.80
2019-04-24T19:37:28.557Z,17.50
2019-04-24T19:39:56.070Z,17.50
2019-04-24T19:42:23.557Z,17.40
2019-04-24T19:44:51.897Z,17.40
2019-04-24T19:47:32.629Z,17.30
2019-04-24T19:49:47.868Z,17.40
2019-04-24T19:52:16.170Z,17.40
2019-04-24T19:54:43.833Z,17.40
2019-04-24T19:59:41.314Z,16.80
2019-04-24T20:02:09.389Z,16.10
2019-04-24T20:04:37.675Z,16.00
2019-04-24T20:07:06.305Z,16.60
2019-04-24T20:09:39.761Z,16.60
2019-04-24T20:12:08.064Z,16.40
2019-04-24T20:14:35.552Z,16.40
2019-04-24T20:17:03.850Z,16.40
2019-04-24T20:19:31.637Z,16.20
2019-04-24T20:21:58.884Z,16.10
2019-04-24T20:24:26.365Z,16.00
2019-04-24T20:26:54.638Z,15.80
2019-04-24T20:29:22.151Z,15.80
2019-04-24T20:31:49.764Z,15.40
2019-04-24T20:34:18.237Z,15.00
2019-04-24T20:36:44.804Z,14.60
2019-04-24T20:39:13.172Z,14.50
2019-04-24T20:41:41.631Z,14.50
2019-04-24T20:44:09.202Z,14.60
2019-04-24T20:46:36.724Z,14.50
2019-04-24T20:49:04.437Z,14.60
2019-04-24T20:51:33.095Z,14.50
2019-04-24T20:54:01.495Z,14.60
2019-04-24T20:56:29.493Z,14.50
2019-04-24T20:58:57.185Z,14.60
2019-04-24T21:01:25.602Z,14.60
2019-04-24T21:03:53.008Z,14.60
2019-04-24T21:06:33.342Z,14.90
2019-04-24T21:09:01.683Z,14.50
2019-04-24T21:13:58.073Z,14.10
2019-04-24T21:18:56.052Z,13.80
2019-04-24T21:21:24.650Z,13.90
2019-04-24T21:23:54.665Z,14.30
2019-04-24T21:26:19.005Z,14.00
2019-04-24T21:28:46.598Z,14.10
2019-04-24T21:31:14.140Z,14.30
2019-04-24T21:33:42.498Z,13.70
2019-04-24T21:36:10.175Z,13.70
2019-04-24T21:38:37.848Z,13.80
2019-04-24T21:41:06.904Z,13.80
2019-04-24T21:46:03.864Z,14.00
2019-04-24T21:48:31.983Z,13.90
2019-04-24T21:50:59.765Z,13.80
2019-04-24T21:53:28.729Z,13.60
2019-04-24T21:55:55.571Z,13.60
2019-04-24T22:00:54.656Z,13.70
2019-04-24T22:03:37.939Z,14.00
2019-04-24T22:06:07.844Z,13.80
2019-04-24T22:08:35.380Z,13.70
2019-04-24T22:11:04.426Z,13.70
2019-04-24T22:13:32.766Z,13.50
2019-04-24T22:16:02.219Z,13.60
2019-04-24T22:20:57.982Z,13.30
2019-04-24T22:26:26.443Z,13.80
2019-04-24T22:28:54.006Z,13.90
2019-04-24T22:31:28.656Z,13.90
2019-04-24T22:34:01.327Z,13.60
2019-04-24T22:36:29.026Z,13.60
2019-04-24T22:39:09.510Z,13.30
2019-04-24T22:41:38.781Z,13.30
2019-04-24T22:44:06.282Z,13.70
2019-04-24T22:46:34.425Z,13.60
2019-04-24T22:49:01.633Z,13.50
2019-04-24T22:51:29.192Z,14.00
2019-04-24T22:53:56.765Z,14.20
2019-04-24T22:56:25.849Z,13.80
2019-04-24T22:58:53.632Z,13.70
2019-04-24T23:01:21.122Z,13.90
2019-04-24T23:03:49.406Z,13.60
2019-04-24T23:06:17.982Z,13.50
2019-04-24T23:08:46.277Z,13.50
2019-04-24T23:11:13.927Z,13.50
2019-04-24T23:13:43.311Z,13.60
2019-04-24T23:16:12.393Z,13.50
2019-04-24T23:18:39.494Z,13.90
2019-04-24T23:21:07.436Z,13.90
2019-04-24T23:23:51.351Z,13.80
2019-04-24T23:26:28.737Z,13.70
2019-04-24T23:29:02.254Z,13.40
2019-04-24T23:31:32.050Z,13.40
2019-04-24T23:34:01.368Z,13.30
2019-04-24T23:36:28.532Z,13.30
2019-04-24T23:38:56.031Z,13.30
2019-04-24T23:41:25.535Z,13.10
2019-04-24T23:43:53.790Z,12.90
2019-04-24T23:46:22.086Z,12.90
2019-04-24T23:48:52.113Z,13.20
2019-04-24T23:51:18.149Z,13.20
2019-04-24T23:53:46.401Z,13.00
2019-04-24T23:56:13.925Z,13.00
2019-04-24T23:58:42.006Z,12.90
